Terminal Aerodrome Forecast
Issued by NWS Memphis, TN

Home | Current Version | Previous Version | Text Only | Print | Product List | Glossary On
Versions: 1 2 3 4 5 6 7 8 9 10 11 12 13 14 15 16 17 18 19 20 21 22 23
000
FTUS44 KMEG 172320
TAFMKL
TAF
KMKL 172320Z 1800/1824 33006KT P6SM OVC250
     FM180600 03003KT P6SM VCSH SCT040 OVC090
      TEMPO 1807/1811 6SM -RA BR SCT025 BKN040
     FM181100 03003KT 6SM -RA BR SCT009 OVC025
     FM181400 VRB03KT P6SM VCSH OVC025=

USA.gov is the U.S. government's official web portal to all federal, state and local government web resources and services.